Terminal Aerodrome Forecast
Issued by NWS

Home | Current Version | Previous Version | Text Only | Print | Product List | Glossary On
Versions: 1 2 3 4 5 6 7 8 9 10 11 12 13 14 15 16 17
000
FTUS44 KLZK 030500
TAFLIT
TAF
KLIT 030526Z 0306/0406 VRB03KT 4SM BR OVC008
     FM030800 VRB03KT 3SM BR OVC004
     FM031400 21005KT P6SM VCSH OVC008
     FM031800 21009KT 5SM BR VCSH OVC004
      TEMPO 0320/0324 3SM -RA=

USA.gov is the U.S. government's official web portal to all federal, state and local government web resources and services.